Time,TemperatureF,DewpointF,PressureIn,WindDirection,WindDirectionDegrees,WindSpeedMPH,WindSpeedGustMPH,Humidity,HourlyPrecipIn,Conditions,Clouds,dailyrainin,SoftwareType,DateUTC
2013-09-13 00:13:00,70.0,45.0,30.12,NNE,24,3.0,4.0,40,0.00,,,0.01,,2013-09-13 05:13:00,
2013-09-13 00:22:00,70.0,45.0,30.12,NNE,24,3.0,4.0,40,0.00,,,0.01,,2013-09-13 05:22:00,
2013-09-13 00:43:00,70.0,46.0,30.11,West,264,2.0,4.0,42,0.00,,,0.01,,2013-09-13 05:43:00,
2013-09-13 00:53:00,70.0,46.0,30.11,West,264,2.0,4.0,42,0.00,,,0.01,,2013-09-13 05:53:00,
2013-09-13 01:12:00,69.0,46.0,30.11,South,179,3.0,6.0,44,0.00,,,0.01,,2013-09-13 06:12:00,
2013-09-13 01:22:00,69.0,46.0,30.11,South,179,3.0,6.0,44,0.00,,,0.01,,2013-09-13 06:22:00,
2013-09-13 01:52:00,68.0,46.0,30.11,NNE,20,3.0,3.0,46,0.00,,,0.01,,2013-09-13 06:52:00,
2013-09-13 02:11:00,67.0,46.0,30.11,NNE,31,1.0,2.0,47,0.00,,,0.01,,2013-09-13 07:11:00,
2013-09-13 02:22:00,67.0,46.0,30.11,NNE,31,1.0,2.0,47,0.00,,,0.01,,2013-09-13 07:22:00,
2013-09-13 02:52:00,66.0,47.0,30.11,NNE,24,1.0,3.0,51,0.00,,,0.01,,2013-09-13 07:52:00,
2013-09-13 03:11:00,65.0,47.0,30.11,NNE,16,1.0,2.0,53,0.00,,,0.01,,2013-09-13 08:11:00,
2013-09-13 03:22:00,65.0,47.0,30.11,NNE,16,1.0,2.0,53,0.00,,,0.01,,2013-09-13 08:22:00,
2013-09-13 03:52:00,65.0,48.0,30.11,NNE,27,1.0,1.0,54,0.00,,,0.01,,2013-09-13 08:52:00,
2013-09-13 04:12:00,64.0,48.0,30.11,NNE,23,0.0,1.0,57,0.00,,,0.01,,2013-09-13 09:12:00,
2013-09-13 04:21:00,64.0,48.0,30.11,NNE,23,0.0,1.0,57,0.00,,,0.01,,2013-09-13 09:21:00,
2013-09-13 04:54:00,63.0,48.0,30.11,North,360,0.0,1.0,59,0.00,,,0.01,,2013-09-13 09:54:00,
2013-09-13 05:12:00,62.0,48.0,30.11,North,360,0.0,0.0,60,0.00,,,0.01,,2013-09-13 10:12:00,
2013-09-13 05:23:00,62.0,48.0,30.11,North,360,0.0,0.0,60,0.00,,,0.01,,2013-09-13 10:23:00,
2013-09-13 05:53:00,61.0,49.0,30.12,North,360,0.0,0.0,64,0.00,,,0.01,,2013-09-13 10:53:00,
2013-09-13 06:12:00,60.0,48.0,30.13,North,360,0.0,0.0,65,0.00,,,0.01,,2013-09-13 11:12:00,
2013-09-13 06:22:00,60.0,48.0,30.13,North,360,0.0,0.0,65,0.00,,,0.01,,2013-09-13 11:22:00,
2013-09-13 06:52:00,60.0,49.0,30.14,North,360,0.0,0.0,67,0.00,,,0.01,,2013-09-13 11:52:00,
2013-09-13 07:12:00,59.0,49.0,30.14,NNE,25,0.0,1.0,69,0.00,,,0.01,,2013-09-13 12:12:00,
2013-09-13 07:22:00,59.0,49.0,30.14,NNE,25,0.0,1.0,69,0.00,,,0.01,,2013-09-13 12:22:00,
2013-09-13 07:52:00,59.0,49.0,30.14,North,360,0.0,0.0,70,0.00,,,0.01,,2013-09-13 12:52:00,
2013-09-13 08:21:00,59.0,50.0,30.14,NNE,29,1.0,2.0,71,0.00,,,0.01,,2013-09-13 13:21:00,
2013-09-13 08:52:00,60.0,51.0,30.14,NNE,24,2.0,2.0,71,0.00,,,0.00,,2013-09-13 13:52:00,
2013-09-13 09:11:00,61.0,51.0,30.14,NNE,24,1.0,1.0,69,0.00,,,0.00,,2013-09-13 14:11:00,
2013-09-13 09:22:00,61.0,51.0,30.14,NNE,24,1.0,1.0,69,0.00,,,0.00,,2013-09-13 14:22:00,
2013-09-13 09:52:00,63.0,51.0,30.15,NNE,20,1.0,2.0,64,0.00,,,0.00,,2013-09-13 14:52:00,
2013-09-13 10:11:00,65.0,51.0,30.15,ENE,58,3.0,6.0,60,0.00,,,0.00,,2013-09-13 15:11:00,
2013-09-13 10:22:00,65.0,51.0,30.15,ENE,58,3.0,6.0,60,0.00,,,0.00,,2013-09-13 15:22:00,
2013-09-13 10:53:00,66.0,51.0,30.15,North,360,0.0,1.0,59,0.00,,,0.00,,2013-09-13 15:53:00,
2013-09-13 11:12:00,68.0,51.0,30.15,North,358,2.0,3.0,54,0.00,,,0.00,,2013-09-13 16:12:00,
2013-09-13 11:24:00,68.0,51.0,30.15,North,358,2.0,3.0,54,0.00,,,0.00,,2013-09-13 16:24:00,
2013-09-13 11:54:00,70.0,51.0,30.15,North,358,2.0,2.0,51,0.00,,,0.00,,2013-09-13 16:54:00,
2013-09-13 12:13:00,71.0,49.0,30.14,NNE,27,2.0,3.0,45,0.00,,,0.00,,2013-09-13 17:13:00,
2013-09-13 12:24:00,71.0,49.0,30.14,NNE,27,2.0,3.0,45,0.00,,,0.00,,2013-09-13 17:24:00,
2013-09-13 12:53:00,72.0,51.0,30.14,NNE,15,3.0,4.0,48,0.00,,,0.00,,2013-09-13 17:53:00,
2013-09-13 13:12:00,71.0,50.0,30.13,North,359,5.0,5.0,47,0.00,,,0.00,,2013-09-13 18:12:00,
2013-09-13 13:22:00,71.0,50.0,30.13,North,359,5.0,5.0,47,0.00,,,0.00,,2013-09-13 18:22:00,
2013-09-13 13:52:00,72.0,49.0,30.11,North,358,2.0,3.0,44,0.00,,,0.00,,2013-09-13 18:52:00,
2013-09-13 14:11:00,72.0,50.0,30.10,NE,42,3.0,4.0,46,0.00,,,0.00,,2013-09-13 19:11:00,
2013-09-13 14:22:00,72.0,50.0,30.10,NE,42,3.0,4.0,46,0.00,,,0.00,,2013-09-13 19:22:00,
2013-09-13 14:52:00,74.0,49.0,30.09,North,358,5.0,5.0,42,0.00,,,0.00,,2013-09-13 19:52:00,
2013-09-13 15:11:00,74.0,49.0,30.08,NNE,13,3.0,4.0,42,0.00,,,0.00,,2013-09-13 20:11:00,
2013-09-13 15:22:00,74.0,49.0,30.08,NNE,13,3.0,4.0,42,0.00,,,0.00,,2013-09-13 20:22:00,
2013-09-13 15:52:00,73.0,49.0,30.08,North,1,3.0,3.0,43,0.00,,,0.00,,2013-09-13 20:52:00,
2013-09-13 16:12:00,74.0,47.0,30.06,North,358,3.0,6.0,39,0.00,,,0.00,,2013-09-13 21:12:00,
2013-09-13 16:22:00,74.0,47.0,30.06,North,358,3.0,6.0,39,0.00,,,0.00,,2013-09-13 21:22:00,
2013-09-13 16:54:00,73.0,47.0,30.06,North,359,4.0,7.0,40,0.00,,,0.00,,2013-09-13 21:54:00,
2013-09-13 17:13:00,72.0,46.0,30.05,NNE,12,1.0,4.0,39,0.00,,,0.00,,2013-09-13 22:13:00,
2013-09-13 17:24:00,72.0,46.0,30.05,NNE,12,1.0,4.0,39,0.00,,,0.00,,2013-09-13 22:24:00,
2013-09-13 17:53:00,73.0,46.0,30.05,NNE,12,2.0,4.0,38,0.00,,,0.00,,2013-09-13 22:53:00,
2013-09-13 18:12:00,73.0,47.0,30.04,NNE,25,2.0,2.0,40,0.00,,,0.00,,2013-09-13 23:12:00,
2013-09-13 18:22:00,73.0,47.0,30.04,NNE,25,2.0,2.0,40,0.00,,,0.00,,2013-09-13 23:22:00,
2013-09-13 18:42:00,72.0,47.0,30.05,North,360,0.0,1.0,41,0.00,,,0.00,,2013-09-13 23:42:00,
2013-09-13 18:53:00,72.0,47.0,30.05,North,360,0.0,1.0,41,0.00,,,0.00,,2013-09-13 23:53:00,
2013-09-13 19:22:00,71.0,47.0,30.03,NNE,25,1.0,1.0,43,0.00,,,0.00,,2013-09-14 00:22:00,
2013-09-13 19:52:00,70.0,48.0,30.03,North,360,0.0,0.0,46,0.00,,,0.00,,2013-09-14 00:52:00,
2013-09-13 20:11:00,68.0,49.0,30.03,North,360,0.0,0.0,50,0.00,,,0.00,,2013-09-14 01:11:00,
2013-09-13 20:22:00,68.0,49.0,30.03,North,360,0.0,0.0,50,0.00,,,0.00,,2013-09-14 01:22:00,
2013-09-13 20:52:00,66.0,48.0,30.04,North,360,0.0,0.0,52,0.00,,,0.00,,2013-09-14 01:52:00,
2013-09-13 21:12:00,65.0,49.0,30.05,North,360,0.0,0.0,56,0.00,,,0.00,,2013-09-14 02:12:00,
2013-09-13 21:22:00,65.0,49.0,30.05,North,360,0.0,0.0,56,0.00,,,0.00,,2013-09-14 02:22:00,
2013-09-13 21:52:00,63.0,48.0,30.05,North,360,0.0,0.0,58,0.00,,,0.00,,2013-09-14 02:52:00,
2013-09-13 22:12:00,62.0,48.0,30.05,North,360,0.0,0.0,61,0.00,,,0.00,,2013-09-14 03:12:00,
2013-09-13 22:22:00,62.0,48.0,30.05,North,360,0.0,0.0,61,0.00,,,0.00,,2013-09-14 03:22:00,
2013-09-13 22:55:00,62.0,49.0,30.05,North,360,0.0,0.0,63,0.00,,,0.00,,2013-09-14 03:55:00,
2013-09-13 23:14:00,61.0,49.0,30.05,North,360,0.0,0.0,64,0.00,,,0.00,,2013-09-14 04:14:00,
2013-09-13 23:24:00,61.0,49.0,30.05,North,360,0.0,0.0,64,0.00,,,0.00,,2013-09-14 04:24:00,
2013-09-13 23:43:00,60.0,49.0,30.05,North,360,0.0,0.0,66,0.00,,,0.00,,2013-09-14 04:43:00,
2013-09-13 23:54:00,60.0,49.0,30.05,North,360,0.0,0.0,66,0.00,,,0.00,,2013-09-14 04:54:00,